Good Hart, MI (49737)

6:38 PM EDT on September 26, 2016 (GMT -0400)
Sturgeon Bay Michigan Shore | | Change Station

Elev 571 ft 45.67 °N, 85.00 °W | Updated 9 seconds ago

Overcast
Overcast
58.5 °F
Feels Like 58.5 °F
N
15.0
Wind Variable Wind from West
Gusts 26.0 mph

Today
High -- | Low -- °F
--% Chance of Precip.
Yesterday
High -- | Low -- °F
Precip. -- in
Pressure 29.70 in
Visibility 10.0 miles
Clouds Scattered Clouds 2700 ft
Mostly Cloudy 3400 ft
Overcast 4700 ft
Dew Point 53 °F
Humidity 82%
Rainfall 0.42 in
Snow Depth Not available.
7:32 AM 7:29 PM
Waning Crescent, 16% visible
METAR KMGN 262234Z AUTO 23007G16KT 10SM RA SCT027 BKN034 OVC047 12/10 A2970 RMK AO2 T01200099
Pressure 29.70 in
Visibility 10.0 miles
Clouds Scattered Clouds 2700 ft
Mostly Cloudy 3400 ft
Overcast 4700 ft
Dew Point 53 °F
Humidity 82%
Rainfall 0.42 in
Snow Depth Not available.
7:32 AM 7:29 PM
Waning Crescent, 16% visible
METAR KMGN 262234Z AUTO 23007G16KT 10SM RA SCT027 BKN034 OVC047 12/10 A2970 RMK AO2 T01200099

10-Day Weather Forecast

Almanac

Astronomy

Sep. 26, 2016 Rise Set
Actual Time
Civil Twilight
Nautical Twilight
Astronomical Twilight
Moon
Length of Visible Light
Length of Day
Tomorrow will be .
, % of the Moon is Illuminated

Today's Extremes

State Highs State Lows

Community

WunderPhotos

Upload Photos

1,941,979 photos uploaded!

WunderBlog® & News

Nearby

Air Quality

  Air Quality AQ Index Pollutant
Not available.

Snow Depth

Station Depth Elevation

Earthquake Activity

City Distance Mag. Time & Date
Minimum magnitude displayed is 2.5.

Coastal Water Temperatures

Place Temperature

Stations

Nearby Weather Stations

Station Location Temp. Windchill Dew Point Humidity Wind Precip. Elev Updated Type
                   

Watches & Warnings

There are currently no watches in effect.